Time;durP1;ratioP1;P1;durP2;ratioP2;P2;SDS_P1;SDS_P2;PMS_P1;PMS_P2;Temp;Humidity;BMP_temperature;BMP_pressure;BME280_temperature;BME280_humidity;BME280_pressure;Samples;Min_cycle;Max_cycle;Signal;HPM_P1;HPM_P2
2021/10/07 00:01:12;;;;;;;8.55;3.30;;;12.30;99.90;;;;;;5029204;28;20183;-69
2021/10/07 00:03:39;;;;;;;8.73;2.97;;;12.30;99.90;;;;;;5028373;28;20045;-69
2021/10/07 00:06:06;;;;;;;9.93;3.22;;;12.40;99.90;;;;;;5026556;28;20048;-68
2021/10/07 00:08:34;;;;;;;6.57;3.35;;;12.40;99.90;;;;;;5027735;28;20052;-68
2021/10/07 00:11:01;;;;;;;10.40;3.53;;;12.40;99.90;;;;;;5026761;28;20053;-68
2021/10/07 00:13:29;;;;;;;10.63;3.47;;;12.30;99.90;;;;;;5027242;28;20075;-68
2021/10/07 00:15:56;;;;;;;12.02;3.75;;;12.30;99.90;;;;;;5026956;28;20052;-68
2021/10/07 00:18:24;;;;;;;10.88;3.67;;;12.30;99.90;;;;;;5028309;28;20103;-68
2021/10/07 00:20:51;;;;;;;10.02;3.70;;;12.30;99.90;;;;;;5028622;28;20063;-68
2021/10/07 00:23:23;;;;;;;8.68;3.70;;;12.30;99.90;;;;;;5026844;28;20056;-68
2021/10/07 00:25:51;;;;;;;8.50;3.30;;;12.30;99.90;;;;;;5026900;28;20418;-69
2021/10/07 00:28:18;;;;;;;9.52;3.38;;;12.40;99.90;;;;;;5027997;28;20067;-67
2021/10/07 00:30:46;;;;;;;9.73;3.53;;;12.40;99.90;;;;;;5027106;28;20052;-67
2021/10/07 00:33:20;;;;;;;6.47;3.50;;;12.30;99.90;;;;;;5027854;28;20508;-67
2021/10/07 00:36:02;;;;;;;10.43;3.95;;;12.40;99.90;;;;;;5027151;28;20100;-67
2021/10/07 00:41:15;;;;;;;10.52;4.03;;;12.40;99.90;;;;;;5026368;28;20109;-68
2021/10/07 00:43:42;;;;;;;10.25;3.50;;;12.30;99.90;;;;;;5026695;28;20041;-68
2021/10/07 00:46:09;;;;;;;9.77;3.40;;;12.30;99.90;;;;;;5025989;28;20049;-68
2021/10/07 00:48:36;;;;;;;8.20;3.45;;;12.30;99.90;;;;;;5027248;28;20094;-68
2021/10/07 00:51:03;;;;;;;8.02;3.60;;;12.30;99.90;;;;;;5027533;28;20049;-68
2021/10/07 00:53:31;;;;;;;8.98;3.80;;;12.30;99.90;;;;;;5025884;28;20124;-68
2021/10/07 00:56:01;;;;;;;11.07;3.55;;;12.40;99.90;;;;;;5026581;28;20563;-68
2021/10/07 00:58:30;;;;;;;9.30;3.72;;;12.40;99.90;;;;;;5026811;28;20069;-68
2021/10/07 01:00:57;;;;;;;9.52;3.60;;;12.30;99.90;;;;;;5028226;28;20398;-68
2021/10/07 01:03:24;;;;;;;10.07;3.55;;;12.20;99.90;;;;;;5029958;28;20045;-67
2021/10/07 01:05:51;;;;;;;7.53;3.17;;;12.20;99.90;;;;;;5026500;28;20053;-68
2021/10/07 01:08:18;;;;;;;9.63;3.35;;;12.20;99.90;;;;;;5027646;28;20106;-68
2021/10/07 01:10:46;;;;;;;9.20;3.28;;;12.20;99.90;;;;;;5028478;28;20060;-69
2021/10/07 01:13:13;;;;;;;12.15;3.80;;;12.20;99.90;;;;;;5027681;28;20045;-68
2021/10/07 01:15:42;;;;;;;7.03;3.00;;;12.30;99.90;;;;;;5026542;28;20073;-68
2021/10/07 01:18:09;;;;;;;10.23;2.92;;;12.30;99.90;;;;;;5026516;28;20148;-68
2021/10/07 01:20:41;;;;;;;7.68;3.20;;;12.40;99.90;;;;;;5026891;28;20052;-68
2021/10/07 01:23:08;;;;;;;6.22;3.10;;;12.30;99.90;;;;;;5026798;28;20057;-67
2021/10/07 01:25:35;;;;;;;11.38;3.05;;;12.40;99.90;;;;;;5025988;28;20044;-68
2021/10/07 01:28:03;;;;;;;7.85;3.97;;;12.40;99.90;;;;;;5027715;28;20051;-68
2021/10/07 01:30:30;;;;;;;10.27;3.38;;;12.40;99.90;;;;;;5026748;28;20048;-67
2021/10/07 01:32:58;;;;;;;7.22;3.17;;;12.30;99.90;;;;;;5027042;28;20041;-68
2021/10/07 01:35:25;;;;;;;9.75;3.42;;;12.30;99.90;;;;;;5027910;28;20049;-68
2021/10/07 01:37:54;;;;;;;10.27;3.35;;;12.30;99.90;;;;;;5027221;28;20053;-69
2021/10/07 01:40:22;;;;;;;9.48;3.70;;;12.30;99.90;;;;;;5028448;28;20063;-68
2021/10/07 01:42:49;;;;;;;13.05;3.67;;;12.30;99.90;;;;;;5030436;28;20053;-68
2021/10/07 01:45:17;;;;;;;10.32;3.35;;;12.30;99.90;;;;;;5029109;28;20052;-68
2021/10/07 01:47:44;;;;;;;14.95;4.35;;;12.20;99.90;;;;;;5030917;28;20049;-68
2021/10/07 01:50:13;;;;;;;9.63;3.58;;;12.10;99.90;;;;;;5031292;28;20359;-69
2021/10/07 01:52:41;;;;;;;7.03;3.40;;;12.10;99.90;;;;;;5031764;28;20094;-68
2021/10/07 01:55:11;;;;;;;6.85;3.42;;;12.10;99.90;;;;;;5031369;28;20463;-68
2021/10/07 01:57:39;;;;;;;11.68;3.63;;;12.10;99.90;;;;;;5032366;28;20390;-68
2021/10/07 02:00:08;;;;;;;7.25;3.40;;;12.10;99.90;;;;;;5031556;28;20053;-69
2021/10/07 02:02:35;;;;;;;10.80;3.67;;;12.10;99.90;;;;;;5030268;28;20049;-68
2021/10/07 02:05:02;;;;;;;9.27;3.25;;;12.00;99.90;;;;;;5030853;28;20052;-68
2021/10/07 02:07:29;;;;;;;8.07;3.70;;;11.90;99.90;;;;;;5031040;28;20083;-67
2021/10/07 02:09:57;;;;;;;10.25;3.65;;;11.90;99.90;;;;;;5031722;28;20045;-68
2021/10/07 02:12:25;;;;;;;7.75;3.85;;;11.90;99.90;;;;;;5031180;28;20052;-68
2021/10/07 02:14:52;;;;;;;10.90;3.92;;;11.90;99.90;;;;;;5031924;28;20044;-67
2021/10/07 02:17:19;;;;;;;10.10;3.60;;;11.90;99.90;;;;;;5030352;28;20123;-68
2021/10/07 02:19:46;;;;;;;12.18;3.83;;;11.90;99.90;;;;;;5031334;28;20052;-67
2021/10/07 02:22:13;;;;;;;8.98;4.00;;;11.80;99.90;;;;;;5029941;28;20049;-67
2021/10/07 02:24:40;;;;;;;8.45;3.63;;;11.70;99.90;;;;;;5030363;28;20122;-68
2021/10/07 02:27:07;;;;;;;9.30;3.80;;;11.70;99.90;;;;;;5030798;28;20048;-68
2021/10/07 02:29:36;;;;;;;7.63;3.63;;;11.50;99.90;;;;;;5030244;28;20049;-68
2021/10/07 02:32:04;;;;;;;10.57;3.60;;;11.40;99.90;;;;;;5029902;28;20052;-68
2021/10/07 02:34:31;;;;;;;8.88;3.67;;;11.40;99.90;;;;;;5029976;28;20053;-68
2021/10/07 02:36:58;;;;;;;7.82;4.05;;;11.30;99.90;;;;;;5028642;28;20052;-67
2021/10/07 02:39:25;;;;;;;11.20;4.20;;;11.30;99.90;;;;;;5029707;28;20047;-67
2021/10/07 02:41:52;;;;;;;13.00;4.43;;;11.30;99.90;;;;;;5030459;28;20056;-68
2021/10/07 02:44:19;;;;;;;9.73;4.40;;;11.20;99.90;;;;;;5030583;28;20110;-67
2021/10/07 02:46:48;;;;;;;12.40;4.47;;;11.10;99.90;;;;;;5029251;28;20132;-69
2021/10/07 02:49:15;;;;;;;8.15;3.75;;;11.10;99.90;;;;;;5029190;28;20045;-68
2021/10/07 02:51:42;;;;;;;12.13;4.22;;;11.10;99.90;;;;;;5029372;28;20079;-68
2021/10/07 02:54:09;;;;;;;7.85;3.97;;;11.10;99.90;;;;;;5029929;28;20667;-68
2021/10/07 02:56:36;;;;;;;11.07;3.70;;;11.10;99.90;;;;;;5029004;28;20463;-69
2021/10/07 02:59:03;;;;;;;11.95;5.20;;;11.20;99.90;;;;;;5030105;28;20048;-67
2021/10/07 03:01:30;;;;;;;12.52;4.55;;;11.20;99.90;;;;;;5029655;28;20056;-69
2021/10/07 03:03:58;;;;;;;9.32;4.13;;;11.20;99.90;;;;;;5030748;28;20049;-69
2021/10/07 03:06:25;;;;;;;14.73;5.70;;;11.20;99.90;;;;;;5029171;28;20045;-69
2021/10/07 03:08:53;;;;;;;11.45;4.45;;;11.30;99.90;;;;;;5029528;28;20554;-68
2021/10/07 03:11:21;;;;;;;7.35;4.18;;;11.50;99.90;;;;;;5029700;28;20053;-69
2021/10/07 03:13:48;;;;;;;9.30;4.22;;;11.60;99.90;;;;;;5030046;28;20059;-68
2021/10/07 03:16:15;;;;;;;7.60;3.95;;;11.60;99.90;;;;;;5028229;28;20052;-68
2021/10/07 03:18:42;;;;;;;10.35;4.82;;;11.70;99.90;;;;;;5029908;28;20517;-68
2021/10/07 03:21:10;;;;;;;9.40;4.03;;;11.80;99.90;;;;;;5027853;28;20049;-69
2021/10/07 03:23:38;;;;;;;14.70;4.90;;;11.80;99.90;;;;;;5028704;28;20045;-68
2021/10/07 03:26:05;;;;;;;13.82;4.53;;;11.80;99.90;;;;;;5029776;28;20041;-68
2021/10/07 03:28:32;;;;;;;11.63;4.65;;;11.80;99.90;;;;;;5029375;28;20053;-69
2021/10/07 03:30:59;;;;;;;12.55;4.82;;;11.80;99.90;;;;;;5029254;28;20079;-69
2021/10/07 03:33:26;;;;;;;14.68;5.50;;;11.80;99.90;;;;;;5029533;28;20056;-69
2021/10/07 03:35:53;;;;;;;10.77;4.93;;;11.80;99.90;;;;;;5029664;28;20053;-68
2021/10/07 03:38:21;;;;;;;11.30;4.80;;;11.80;99.90;;;;;;5030876;28;20049;-69
2021/10/07 03:40:48;;;;;;;10.48;5.13;;;11.80;99.90;;;;;;5030537;28;20053;-68
2021/10/07 03:43:15;;;;;;;9.73;4.88;;;11.80;99.90;;;;;;5029861;28;20060;-69
2021/10/07 03:45:42;;;;;;;9.90;4.40;;;11.80;99.90;;;;;;5029865;28;20053;-68
2021/10/07 03:48:10;;;;;;;13.70;4.97;;;11.90;99.90;;;;;;5031043;28;20056;-69
2021/10/07 03:50:37;;;;;;;9.00;3.97;;;11.90;99.90;;;;;;5029635;28;20107;-68
2021/10/07 03:53:04;;;;;;;13.65;4.07;;;11.90;99.90;;;;;;5029322;28;20409;-69
2021/10/07 03:55:32;;;;;;;8.63;3.85;;;12.00;99.90;;;;;;5028629;28;20057;-69
2021/10/07 03:58:00;;;;;;;7.10;3.45;;;11.90;99.90;;;;;;5029083;28;20130;-68
2021/10/07 04:00:27;;;;;;;9.35;3.70;;;11.90;99.90;;;;;;5028447;28;20120;-68
2021/10/07 04:02:57;;;;;;;8.45;3.85;;;11.90;99.90;;;;;;5028304;28;20084;-68
2021/10/07 04:05:24;;;;;;;8.73;4.10;;;11.90;99.90;;;;;;5027363;28;21058;-68
2021/10/07 04:07:51;;;;;;;11.63;3.92;;;11.90;99.90;;;;;;5028470;28;20044;-68
2021/10/07 04:10:18;;;;;;;8.82;3.60;;;11.90;99.90;;;;;;5027034;28;20154;-68
2021/10/07 04:12:47;;;;;;;10.43;4.03;;;11.90;99.90;;;;;;5028304;28;20497;-68
2021/10/07 04:15:14;;;;;;;11.00;4.38;;;11.90;99.90;;;;;;5026953;28;20056;-68
2021/10/07 04:17:42;;;;;;;10.13;4.47;;;12.00;99.90;;;;;;5033275;28;20132;-69
2021/10/07 04:20:10;;;;;;;15.57;4.88;;;12.00;99.90;;;;;;5031069;28;20053;-68
2021/10/07 04:22:37;;;;;;;10.73;4.93;;;12.00;99.90;;;;;;5026909;28;20056;-67
2021/10/07 04:25:04;;;;;;;9.93;4.00;;;12.00;99.90;;;;;;5027354;28;20493;-68
2021/10/07 04:27:32;;;;;;;12.20;5.07;;;12.00;99.90;;;;;;5027164;28;20057;-68
2021/10/07 04:30:00;;;;;;;10.40;4.80;;;12.00;99.90;;;;;;5026984;28;20041;-68
2021/10/07 04:32:28;;;;;;;10.10;4.85;;;12.00;99.90;;;;;;5028831;28;20076;-68
2021/10/07 04:34:55;;;;;;;11.45;4.65;;;12.00;99.90;;;;;;5029135;28;20402;-68
2021/10/07 04:37:22;;;;;;;13.35;4.57;;;12.10;99.90;;;;;;5027975;28;20448;-68
2021/10/07 04:39:49;;;;;;;9.65;4.20;;;12.00;99.90;;;;;;5028746;28;20048;-67
2021/10/07 04:42:16;;;;;;;13.02;4.72;;;12.00;99.90;;;;;;5028299;28;20140;-68
2021/10/07 04:44:43;;;;;;;12.23;4.32;;;12.00;99.90;;;;;;5026861;28;20052;-67
2021/10/07 04:47:11;;;;;;;7.60;4.03;;;12.00;99.90;;;;;;5026221;28;20056;-67
2021/10/07 04:49:38;;;;;;;8.45;4.30;;;11.90;99.90;;;;;;5026764;28;20094;-67
2021/10/07 04:52:05;;;;;;;12.63;4.47;;;12.00;99.90;;;;;;5027529;28;20049;-67
2021/10/07 04:54:32;;;;;;;9.07;4.43;;;12.00;99.90;;;;;;5027693;28;20115;-67
2021/10/07 04:57:00;;;;;;;10.45;4.43;;;12.00;99.90;;;;;;5027894;28;20061;-67
2021/10/07 04:59:27;;;;;;;10.88;4.10;;;12.00;99.90;;;;;;5027730;28;20091;-68
2021/10/07 05:01:54;;;;;;;14.85;4.45;;;12.00;99.90;;;;;;5028179;28;20921;-68
2021/10/07 05:04:22;;;;;;;7.80;3.70;;;12.00;99.90;;;;;;5028070;28;20051;-68
2021/10/07 05:06:49;;;;;;;10.68;4.10;;;12.00;99.90;;;;;;5025660;28;20041;-68
2021/10/07 05:09:17;;;;;;;10.80;4.22;;;12.00;99.90;;;;;;5027271;28;20966;-69
2021/10/07 05:11:44;;;;;;;10.20;4.50;;;12.00;99.90;;;;;;5029030;28;20467;-69
2021/10/07 05:14:11;;;;;;;8.52;4.00;;;12.00;99.90;;;;;;5028819;28;20071;-69
2021/10/07 05:16:38;;;;;;;7.65;3.95;;;12.00;99.90;;;;;;5029181;28;20158;-69
2021/10/07 05:19:05;;;;;;;10.77;4.55;;;12.10;99.90;;;;;;5030230;28;20091;-68
2021/10/07 05:21:33;;;;;;;10.90;4.55;;;12.10;99.90;;;;;;5030116;28;20103;-68
2021/10/07 05:24:00;;;;;;;8.88;4.30;;;12.20;99.90;;;;;;5030776;28;20229;-68
2021/10/07 05:26:27;;;;;;;9.10;4.05;;;12.80;99.90;;;;;;5029466;28;20049;-69
2021/10/07 05:28:54;;;;;;;10.13;4.57;;;13.00;99.90;;;;;;5029841;28;20831;-69
2021/10/07 05:31:21;;;;;;;13.63;4.22;;;13.10;99.90;;;;;;5029076;28;20132;-68
2021/10/07 05:33:49;;;;;;;10.10;4.18;;;12.60;99.90;;;;;;5031593;28;20099;-69
2021/10/07 05:36:17;;;;;;;14.00;4.28;;;12.30;99.90;;;;;;5031390;28;20053;-68
2021/10/07 05:38:45;;;;;;;10.73;4.53;;;12.30;99.90;;;;;;5027550;28;20056;-67
2021/10/07 05:41:12;;;;;;;11.90;4.88;;;12.30;99.90;;;;;;5026330;28;20416;-69
2021/10/07 05:43:39;;;;;;;8.80;4.18;;;12.20;99.90;;;;;;5027174;28;20460;-68
2021/10/07 05:46:06;;;;;;;13.25;4.70;;;12.10;99.90;;;;;;5025439;28;20049;-68
2021/10/07 05:48:34;;;;;;;12.85;4.22;;;12.10;99.90;;;;;;5026950;28;20524;-68
2021/10/07 05:51:01;;;;;;;11.82;4.47;;;12.10;99.90;;;;;;5026808;28;20059;-69
2021/10/07 05:53:28;;;;;;;13.85;4.50;;;12.10;99.90;;;;;;5025147;28;20226;-68
2021/10/07 05:55:56;;;;;;;10.25;4.50;;;12.10;99.90;;;;;;5026843;28;20061;-68
2021/10/07 05:58:23;;;;;;;15.50;5.40;;;12.20;99.90;;;;;;5028502;28;20064;-68
2021/10/07 06:00:50;;;;;;;11.50;5.07;;;12.20;99.90;;;;;;5027702;28;20045;-68
2021/10/07 06:03:17;;;;;;;13.77;5.35;;;12.10;99.90;;;;;;5027211;28;20048;-70
2021/10/07 06:05:46;;;;;;;8.50;4.30;;;12.20;99.90;;;;;;5025910;28;20044;-68
2021/10/07 06:08:13;;;;;;;12.55;4.93;;;12.20;99.90;;;;;;5025441;28;20167;-68
2021/10/07 06:10:40;;;;;;;9.70;5.68;;;12.30;99.90;;;;;;5026284;28;20063;-69
2021/10/07 06:13:08;;;;;;;13.40;5.35;;;12.30;99.90;;;;;;5027758;28;20468;-67
2021/10/07 06:15:38;;;;;;;14.07;5.68;;;12.30;99.90;;;;;;5024473;28;20459;-69
2021/10/07 06:18:05;;;;;;;10.20;5.20;;;12.40;99.90;;;;;;5025953;28;20755;-68
2021/10/07 06:20:33;;;;;;;9.35;5.13;;;12.30;99.90;;;;;;5025322;28;20049;-68
2021/10/07 06:23:03;;;;;;;15.73;5.60;;;12.40;99.90;;;;;;5025828;28;20496;-68
2021/10/07 06:25:31;;;;;;;13.10;5.15;;;12.40;99.90;;;;;;5027774;28;20052;-68
2021/10/07 06:27:58;;;;;;;13.07;5.85;;;12.50;99.90;;;;;;5029032;28;20615;-68
2021/10/07 06:30:26;;;;;;;12.45;6.25;;;12.60;99.90;;;;;;5032507;28;20107;-69
2021/10/07 06:32:53;;;;;;;14.43;7.25;;;12.60;99.90;;;;;;5029129;28;20103;-69
2021/10/07 06:35:21;;;;;;;15.27;7.32;;;12.60;99.90;;;;;;5027122;28;20452;-67
2021/10/07 06:37:48;;;;;;;11.32;5.88;;;12.60;99.90;;;;;;5028374;28;20059;-68
2021/10/07 06:40:15;;;;;;;14.23;6.00;;;12.70;99.90;;;;;;5028179;28;20055;-67
2021/10/07 06:42:42;;;;;;;19.48;6.07;;;12.60;99.90;;;;;;5028181;28;20537;-68
2021/10/07 06:45:11;;;;;;;10.23;5.45;;;12.70;99.90;;;;;;5029057;28;20059;-69
2021/10/07 06:47:40;;;;;;;10.48;5.18;;;12.70;99.90;;;;;;5027664;28;20146;-68
2021/10/07 06:50:09;;;;;;;12.63;5.40;;;12.80;99.90;;;;;;5029621;28;20052;-69
2021/10/07 06:52:37;;;;;;;14.50;5.45;;;12.80;99.90;;;;;;5027322;28;20056;-69
2021/10/07 06:55:05;;;;;;;10.20;5.05;;;12.80;99.90;;;;;;5029363;28;20087;-69
2021/10/07 06:57:32;;;;;;;15.00;6.25;;;12.90;99.90;;;;;;5030150;28;20147;-68
2021/10/07 06:59:59;;;;;;;13.35;5.30;;;13.00;99.90;;;;;;5029028;28;20132;-69
2021/10/07 07:02:26;;;;;;;15.18;5.65;;;13.00;99.90;;;;;;5027215;28;20052;-67
2021/10/07 07:04:55;;;;;;;11.80;5.20;;;12.90;99.90;;;;;;5028455;28;20126;-67
2021/10/07 07:07:22;;;;;;;11.50;5.43;;;13.00;99.90;;;;;;5027310;28;20041;-67
2021/10/07 07:09:49;;;;;;;15.10;6.43;;;13.00;99.90;;;;;;5029373;28;20420;-67
2021/10/07 07:12:16;;;;;;;14.50;5.93;;;13.10;99.90;;;;;;5027070;28;20552;-67
2021/10/07 07:14:43;;;;;;;16.15;6.10;;;13.20;99.90;;;;;;5027916;28;20115;-68
2021/10/07 07:17:10;;;;;;;13.27;6.30;;;13.20;99.90;;;;;;5028279;28;20056;-68
2021/10/07 07:19:37;;;;;;;20.10;5.90;;;13.30;99.90;;;;;;5029187;28;20049;-68
2021/10/07 07:22:06;;;;;;;18.00;7.03;;;13.30;99.90;;;;;;5031012;28;20061;-68
2021/10/07 07:24:33;;;;;;;18.42;7.03;;;13.20;99.90;;;;;;5031747;28;20057;-68
2021/10/07 07:27:00;;;;;;;18.35;6.80;;;13.50;99.90;;;;;;5031163;28;20056;-68
2021/10/07 07:29:27;;;;;;;15.73;6.20;;;13.60;99.90;;;;;;5029104;28;20078;-68
2021/10/07 07:31:54;;;;;;;16.13;6.68;;;13.60;99.90;;;;;;5028244;28;20055;-68
2021/10/07 07:34:21;;;;;;;12.23;6.30;;;13.80;99.90;;;;;;5029111;28;20448;-67
2021/10/07 07:36:48;;;;;;;14.77;6.63;;;14.10;99.90;;;;;;5029291;28;20857;-68
2021/10/07 07:39:17;;;;;;;11.73;5.72;;;14.30;99.90;;;;;;5028555;28;20421;-66
2021/10/07 07:41:44;;;;;;;11.65;6.10;;;14.50;99.90;;;;;;5027864;28;20493;-67
2021/10/07 07:44:11;;;;;;;11.27;6.95;;;14.50;99.90;;;;;;5027260;28;20126;-67
2021/10/07 07:46:38;;;;;;;15.70;6.70;;;14.50;99.90;;;;;;5026757;28;20052;-66
2021/10/07 07:49:05;;;;;;;14.90;7.50;;;14.40;99.90;;;;;;5027900;28;20095;-66
2021/10/07 07:51:33;;;;;;;16.85;7.60;;;14.50;99.90;;;;;;5027557;28;20574;-67
2021/10/07 07:54:00;;;;;;;16.50;7.50;;;14.50;99.90;;;;;;5028118;28;20087;-67
2021/10/07 07:56:28;;;;;;;13.50;6.57;;;14.50;99.90;;;;;;5025199;28;20122;-67
2021/10/07 07:58:55;;;;;;;14.40;7.05;;;14.60;99.90;;;;;;5027655;28;20048;-67
2021/10/07 08:01:24;;;;;;;16.65;7.50;;;14.50;99.90;;;;;;5026942;28;20098;-67
2021/10/07 08:03:51;;;;;;;13.52;6.82;;;14.30;99.90;;;;;;5029678;28;20143;-66
2021/10/07 08:06:18;;;;;;;17.23;8.07;;;14.20;99.90;;;;;;5026035;28;20045;-66
2021/10/07 08:08:45;;;;;;;17.40;7.75;;;14.20;99.90;;;;;;5027656;28;20255;-67
2021/10/07 08:11:12;;;;;;;21.13;8.88;;;14.10;99.90;;;;;;5026269;28;20087;-66
2021/10/07 08:13:41;;;;;;;17.50;7.88;;;14.00;99.90;;;;;;5026593;28;20048;-67
2021/10/07 08:16:08;;;;;;;18.88;9.10;;;13.60;99.90;;;;;;5027220;28;20106;-67
2021/10/07 08:18:35;;;;;;;16.98;8.32;;;13.70;99.90;;;;;;5027246;28;20057;-67
2021/10/07 08:21:02;;;;;;;14.80;7.70;;;14.50;99.90;;;;;;5028362;28;20045;-67
2021/10/07 08:23:30;;;;;;;14.10;8.30;;;14.60;99.90;;;;;;5025749;28;20061;-67
2021/10/07 08:25:58;;;;;;;16.27;6.72;;;15.00;99.90;;;;;;5026312;28;20060;-67
2021/10/07 08:28:25;;;;;;;14.38;6.88;;;18.10;99.90;;;;;;5026673;28;20144;-67
2021/10/07 08:30:53;;;;;;;15.07;7.05;;;18.20;99.90;;;;;;5028224;28;20416;-67
2021/10/07 08:33:20;;;;;;;13.07;6.65;;;20.60;99.90;;;;;;5026512;28;20048;-68
2021/10/07 08:35:49;;;;;;;11.85;5.82;;;20.40;99.90;;;;;;5026378;28;20717;-66
2021/10/07 08:38:16;;;;;;;10.65;5.85;;;21.10;99.90;;;;;;5026864;28;20174;-67
2021/10/07 08:40:44;;;;;;;12.07;5.80;;;19.20;99.90;;;;;;5026632;28;20044;-66
2021/10/07 08:43:11;;;;;;;12.98;6.65;;;18.10;99.90;;;;;;5026191;28;20122;-66
2021/10/07 08:45:38;;;;;;;13.07;7.10;;;17.00;99.90;;;;;;5025750;28;20049;-67
2021/10/07 08:48:08;;;;;;;10.48;6.28;;;16.60;99.90;;;;;;5027008;28;20126;-67
2021/10/07 08:50:35;;;;;;;12.02;6.25;;;16.40;99.90;;;;;;5025363;28;20084;-66
2021/10/07 08:53:02;;;;;;;10.77;5.65;;;16.20;99.90;;;;;;5026596;28;20103;-66
2021/10/07 08:55:29;;;;;;;11.48;6.30;;;16.20;99.90;;;;;;5026424;28;20130;-68
2021/10/07 08:57:56;;;;;;;13.55;5.78;;;15.80;99.90;;;;;;5031811;28;20145;-67
2021/10/07 09:00:23;;;;;;;9.90;5.05;;;16.20;99.90;;;;;;5032022;28;20575;-71
2021/10/07 09:02:51;;;;;;;8.55;4.97;;;16.70;99.90;;;;;;5031207;28;20048;-69
2021/10/07 09:05:22;;;;;;;10.20;5.55;;;16.30;99.90;;;;;;5029533;28;20501;-71
2021/10/07 09:08:04;;;;;;;12.30;5.47;;;16.20;99.90;;;;;;5030269;28;20056;-69
2021/10/07 09:10:40;;;;;;;9.48;4.97;;;16.10;99.90;;;;;;5030747;28;20932;-71
2021/10/07 09:13:10;;;;;;;10.75;5.57;;;15.80;99.90;;;;;;5031049;28;20464;-68
2021/10/07 09:15:42;;;;;;;11.80;5.40;;;15.80;99.90;;;;;;5029225;28;20554;-68
2021/10/07 09:18:09;;;;;;;15.07;5.30;;;16.00;99.90;;;;;;5029780;28;20084;-70
2021/10/07 09:20:39;;;;;;;9.98;5.50;;;15.80;99.90;;;;;;5029264;28;20059;-68
2021/10/07 09:23:09;;;;;;;9.27;4.35;;;15.50;99.90;;;;;;5029020;28;20052;-68
2021/10/07 09:25:59;;;;;;;11.90;5.07;;;15.70;99.90;;;;;;5028397;28;20057;-68
2021/10/07 09:28:28;;;;;;;8.80;4.75;;;15.50;99.90;;;;;;5029788;28;20049;-68
2021/10/07 09:30:58;;;;;;;6.90;3.58;;;15.70;99.90;;;;;;5030169;28;20060;-69
2021/10/07 09:33:30;;;;;;;11.77;4.25;;;15.50;99.90;;;;;;5029542;28;20456;-67
2021/10/07 09:36:13;;;;;;;11.68;5.20;;;15.70;99.90;;;;;;5029912;28;20527;-68
2021/10/07 09:38:40;;;;;;;12.15;5.38;;;15.70;99.90;;;;;;5029132;28;20053;-72
2021/10/07 09:41:12;;;;;;;11.48;5.10;;;15.50;99.90;;;;;;5029433;28;20103;-68
2021/10/07 09:43:47;;;;;;;11.52;5.55;;;15.60;99.90;;;;;;5028611;28;20098;-68
2021/10/07 09:46:40;;;;;;;9.38;4.50;;;15.40;99.90;;;;;;5029730;28;20045;-72
2021/10/07 09:49:08;;;;;;;10.48;4.18;;;15.30;99.90;;;;;;5029228;28;20119;-68
2021/10/07 09:51:41;;;;;;;10.68;4.47;;;15.20;99.90;;;;;;5030157;28;20551;-72
2021/10/07 09:54:08;;;;;;;7.68;3.85;;;15.10;99.90;;;;;;5028994;28;20048;-69
2021/10/07 09:56:35;;;;;;;6.95;3.03;;;15.40;99.90;;;;;;5028073;28;21049;-72
2021/10/07 09:59:08;;;;;;;9.40;3.03;;;16.60;99.90;;;;;;5028414;28;20444;-68
2021/10/07 10:01:35;;;;;;;8.23;3.47;;;17.50;99.90;;;;;;5028341;28;20110;-70
2021/10/07 10:04:03;;;;;;;4.35;2.20;;;18.90;99.90;;;;;;5031281;28;20132;-68
2021/10/07 10:06:31;;;;;;;4.63;2.03;;;18.90;99.90;;;;;;5029221;28;20053;-69
2021/10/07 10:08:59;;;;;;;4.70;2.05;;;19.50;99.90;;;;;;5031516;28;20497;-69
2021/10/07 10:11:26;;;;;;;4.47;2.28;;;21.60;99.90;;;;;;5031205;28;20106;-69
2021/10/07 10:13:53;;;;;;;5.00;1.95;;;21.80;99.90;;;;;;5030930;28;20947;-71
2021/10/07 10:16:20;;;;;;;4.43;1.80;;;21.50;99.90;;;;;;5029641;28;20110;-69
2021/10/07 10:18:55;;;;;;;7.55;2.83;;;23.00;99.90;;;;;;5033317;28;20072;-70
2021/10/07 10:21:23;;;;;;;5.75;2.85;;;23.30;99.90;;;;;;5032201;28;20571;-70
2021/10/07 10:23:51;;;;;;;11.02;2.70;;;23.60;99.90;;;;;;5033472;28;20451;-69
2021/10/07 10:26:20;;;;;;;3.67;2.28;;;22.10;99.90;;;;;;5031113;28;20055;-69
2021/10/07 10:28:50;;;;;;;4.90;2.05;;;22.70;99.90;;;;;;5030520;28;20049;-70
2021/10/07 10:31:26;;;;;;;3.70;2.20;;;20.70;99.90;;;;;;5032412;28;20087;-71
2021/10/07 10:34:04;;;;;;;4.57;1.90;;;20.00;99.90;;;;;;5031833;28;20041;-70
2021/10/07 10:36:34;;;;;;;3.47;1.80;;;19.60;99.90;;;;;;5028814;28;20045;-69
2021/10/07 10:39:05;;;;;;;3.42;2.00;;;22.30;99.90;;;;;;5031004;28;20041;-69
2021/10/07 10:41:55;;;;;;;5.47;1.92;;;24.40;99.90;;;;;;5030516;28;20048;-69
2021/10/07 10:44:42;;;;;;;3.05;1.77;;;26.20;99.90;;;;;;5026239;28;20667;-69
2021/10/07 10:47:18;;;;;;;5.97;2.10;;;27.10;99.90;;;;;;5029760;28;20053;-71
2021/10/07 10:50:11;;;;;;;3.15;1.80;;;27.90;99.90;;;;;;5029864;28;20118;-69
2021/10/07 10:52:42;;;;;;;3.40;1.65;;;27.90;99.90;;;;;;5029862;28;20061;-69
2021/10/07 10:55:11;;;;;;;4.97;1.65;;;27.50;99.90;;;;;;5029207;28;20106;-69
2021/10/07 10:57:41;;;;;;;4.35;1.90;;;24.10;99.90;;;;;;5030063;28;20091;-70
2021/10/07 11:00:20;;;;;;;3.78;1.67;;;21.20;99.90;;;;;;5030029;28;20056;-70
2021/10/07 11:02:48;;;;;;;3.88;2.00;;;20.90;99.90;;;;;;5033452;28;20134;-69
2021/10/07 11:05:21;;;;;;;3.42;1.92;;;20.90;99.90;;;;;;5030452;28;20053;-70
2021/10/07 11:08:15;;;;;;;5.55;2.00;;;20.00;99.90;;;;;;5033293;28;20063;-69
2021/10/07 11:10:45;;;;;;;3.85;1.65;;;21.10;99.90;;;;;;5032133;28;20045;-71
2021/10/07 11:13:16;;;;;;;4.18;1.50;;;25.00;99.90;;;;;;5032585;28;20122;-71
2021/10/07 11:15:46;;;;;;;2.60;1.33;;;26.20;99.90;;;;;;5035286;28;20057;-71
2021/10/07 11:18:14;;;;;;;3.05;1.42;;;27.00;99.90;;;;;;5034626;28;20053;-68
2021/10/07 11:20:41;;;;;;;3.70;1.30;;;28.10;99.90;;;;;;5035525;28;20053;-70
2021/10/07 11:23:11;;;;;;;3.75;1.52;;;29.20;99.90;;;;;;5035633;28;20052;-69
2021/10/07 11:25:40;;;;;;;3.33;1.50;;;29.20;99.90;;;;;;5033404;28;20100;-70
2021/10/07 11:28:08;;;;;;;2.42;1.50;;;27.60;99.90;;;;;;5033457;28;20049;-71
2021/10/07 11:30:39;;;;;;;4.32;1.52;;;26.60;99.90;;;;;;5033556;28;20049;-70
2021/10/07 11:33:06;;;;;;;9.82;1.73;;;27.60;99.90;;;;;;5032658;28;20139;-71
2021/10/07 11:35:34;;;;;;;7.75;3.45;;;27.90;99.90;;;;;;5030552;28;20048;-69
2021/10/07 11:38:08;;;;;;;23.25;12.70;;;24.80;99.90;;;;;;5032443;28;20045;-69
2021/10/07 11:40:41;;;;;;;3.65;1.50;;;27.30;99.90;;;;;;5031922;28;20568;-70
2021/10/07 11:43:11;;;;;;;3.92;1.40;;;25.30;99.90;;;;;;5033858;28;20052;-69
2021/10/07 11:45:42;;;;;;;8.52;2.53;;;21.80;99.90;;;;;;5032338;28;20052;-70
2021/10/07 11:48:09;;;;;;;2.63;1.30;;;21.40;99.90;;;;;;5029474;28;20056;-69
2021/10/07 11:50:39;;;;;;;5.53;1.70;;;23.20;99.90;;;;;;5029827;28;20394;-71
2021/10/07 11:53:07;;;;;;;6.57;3.15;;;26.40;99.90;;;;;;5030154;28;20122;-69
2021/10/07 11:55:34;;;;;;;7.70;2.60;;;26.30;99.90;;;;;;5032081;28;20238;-70
2021/10/07 11:58:02;;;;;;;2.97;1.20;;;27.60;99.90;;;;;;5032233;28;20110;-68
2021/10/07 12:00:38;;;;;;;4.32;1.23;;;25.60;99.90;;;;;;5032147;28;20513;-69
2021/10/07 12:03:11;;;;;;;3.30;1.23;;;23.70;99.90;;;;;;5033487;28;20463;-69
2021/10/07 12:05:39;;;;;;;3.33;1.13;;;26.70;99.90;;;;;;5032586;28;20049;-69
2021/10/07 12:08:08;;;;;;;2.00;0.82;;;26.30;99.90;;;;;;5033956;28;20063;-69
2021/10/07 12:10:37;;;;;;;2.70;1.10;;;27.90;99.90;;;;;;5033817;28;20053;-69
2021/10/07 12:13:13;;;;;;;4.10;1.10;;;28.00;99.90;;;;;;5033590;28;20505;-69
2021/10/07 12:15:44;;;;;;;3.70;1.00;;;23.20;99.90;;;;;;5033204;28;20049;-70
2021/10/07 12:18:13;;;;;;;2.70;1.05;;;25.00;99.90;;;;;;5032626;28;20045;-71
2021/10/07 12:20:40;;;;;;;2.90;0.90;;;22.60;99.90;;;;;;5033556;28;20102;-69
2021/10/07 12:23:08;;;;;;;3.53;1.10;;;20.40;99.90;;;;;;5032047;28;20051;-71
2021/10/07 12:25:44;;;;;;;5.45;3.10;;;19.80;99.90;;;;;;5032371;28;20057;-70
2021/10/07 12:28:15;;;;;;;2.88;1.02;;;19.30;99.90;;;;;;5034176;28;20049;-71
2021/10/07 12:30:58;;;;;;;25.80;16.85;;;20.70;99.90;;;;;;5035138;28;20041;-72
2021/10/07 12:33:31;;;;;;;3.40;1.52;;;20.50;99.90;;;;;;5034798;28;20106;-69
2021/10/07 12:36:01;;;;;;;3.70;1.10;;;23.10;99.90;;;;;;5034336;28;20359;-69
2021/10/07 12:38:29;;;;;;;3.60;1.55;;;23.30;99.90;;;;;;5033691;28;20398;-69
2021/10/07 12:41:00;;;;;;;2.72;1.20;;;23.30;99.90;;;;;;5033463;28;20114;-70
2021/10/07 12:43:28;;;;;;;4.35;0.95;;;23.20;99.90;;;;;;5032791;28;20756;-69
2021/10/07 12:46:06;;;;;;;3.90;1.02;;;22.60;99.90;;;;;;5029560;28;20049;-70
2021/10/07 12:48:48;;;;;;;3.33;1.42;;;23.40;99.90;;;;;;5031528;28;20045;-70
2021/10/07 12:51:16;;;;;;;2.75;1.15;;;22.50;99.90;;;;;;5031826;28;20048;-69